< Cyclone 202110 2021 Season Cyclone 202115 >
Cyclone 202112 (noname)
General InformationTrack Information on Google MapsDetailed Wind Information || ResourceGoogle EarthGE AnimationAtom FeedGeoJSON
Year Month Day Hour Lat. Long. Pressure (hPa) Wind (kt) Class Image Chart
2021 1 27 03 -14.3 129.1 1001 15 2 Image --
2021 1 27 06 -14.6 129.0 998 15 2 Image --
2021 1 27 12 -15.2 127.5 1000 15 2 Image --
2021 1 27 18 -15.4 127.3 1000 15 2 Image --
2021 1 28 00 -15.6 127.1 1000 15 2 Image --
2021 1 28 06 -15.5 126.3 1000 15 2 Image --
2021 1 28 12 -15.6 126.2 999 15 2 Image --
2021 1 28 18 -15.8 126.1 998 15 2 Image --
2021 1 29 00 -16.1 126.0 999 15 2 Image --
2021 1 29 06 -16.3 125.7 997 20 2 Image --
2021 1 29 12 -16.7 125.5 997 20 2 Image --
2021 1 29 18 -17.1 125.4 997 20 2 Image --
2021 1 30 00 -17.3 125.1 996 20 2 Image --
2021 1 30 06 -17.8 124.7 993 20 2 Image --
2021 1 30 12 -18.3 124.0 993 20 2 Image --
2021 1 30 18 -18.8 123.4 993 20 2 Image --
2021 1 31 00 -19.5 123.1 994 20 2 Image --
2021 1 31 06 -20.4 122.4 994 20 2 Image --
2021 1 31 12 -20.5 121.6 994 25 2 Image --
2021 1 31 18 -20.6 120.4 994 25 2 Image --
2021 2 1 00 -20.5 119.4 993 30 2 Image --
2021 2 1 06 -20.4 119.0 992 30 2 Image --
2021 2 1 12 -21.0 118.2 992 30 2 Image --
2021 2 1 18 -21.4 117.1 992 25 2 Image --
2021 2 2 00 -21.9 116.1 992 25 2 Image --
2021 2 2 06 -22.7 115.8 992 25 2 Image --
2021 2 2 12 -23.7 115.1 994 25 2 Image --
2021 2 2 18 -23.9 114.4 995 25 2 Image --
2021 2 3 00 -23.6 114.4 994 25 2 Image --
2021 2 3 06 -23.8 114.4 993 25 2 Image --
2021 2 3 12 -23.7 114.4 992 25 2 Image --
2021 2 3 18 -23.7 114.5 992 25 2 Image --
2021 2 4 00 -24.1 114.3 993 25 2 Image --
2021 2 4 06 -24.3 113.6 993 30 2 Image --
2021 2 4 12 -24.5 113.4 991 30 2 Image --
2021 2 4 18 -24.7 113.1 991 30 2 Image --
2021 2 5 00 -25.0 112.4 991 30 2 Image --
2021 2 5 06 -24.8 111.9 990 30 2 Image --
2021 2 5 12 -24.8 112.5 992 30 2 Image --
2021 2 5 18 -25.3 112.9 990 35 3 Image --
2021 2 6 00 -26.2 113.1 990 35 3 Image --
2021 2 6 06 -27.2 113.3 991 35 3 Image --
2021 2 6 12 -28.0 113.8 991 30 2 Image --
2021 2 6 18 -29.2 114.2 991 30 2 Image --
2021 2 7 00 -30.4 114.6 991 30 2 Image --
2021 2 7 06 -31.2 115.1 992 30 2 Image --
2021 2 7 12 -32.5 115.8 993 30 2 Image --
2021 2 7 18 -33.9 115.9 993 30 2 Image --
2021 2 8 00 -35.4 116.2 993 30 2 Image --
< Cyclone 202110 2021 Season Cyclone 202115 >

Help